createdAt,value
2022-09-12T00:01:36.583Z,14.48
2022-09-12T00:04:05.171Z,14.45
2022-09-12T00:06:36.236Z,14.44
2022-09-12T00:09:09.561Z,14.57
2022-09-12T00:11:41.928Z,14.38
2022-09-12T00:14:12.930Z,14.59
2022-09-12T00:16:41.674Z,14.57
2022-09-12T00:19:12.841Z,14.57
2022-09-12T00:21:42.238Z,14.33
2022-09-12T00:24:12.102Z,14.35
2022-09-12T00:26:41.650Z,14.45
2022-09-12T00:29:11.767Z,14.47
2022-09-12T00:31:40.041Z,14.44
2022-09-12T00:34:08.363Z,14.33
2022-09-12T00:36:36.887Z,14.23
2022-09-12T00:39:05.858Z,14.24
2022-09-12T00:41:38.017Z,13.92
2022-09-12T00:44:51.838Z,14.01
2022-09-12T00:47:28.282Z,14.05
2022-09-12T00:50:08.340Z,13.97
2022-09-12T00:52:42.174Z,14.04
2022-09-12T00:55:14.564Z,14.13
2022-09-12T00:57:50.794Z,14.11
2022-09-12T01:00:25.267Z,14.19
2022-09-12T01:02:58.470Z,14.15
2022-09-12T01:05:29.747Z,14.19
2022-09-12T01:07:58.881Z,14.14
2022-09-12T01:10:27.520Z,14.00
2022-09-12T01:12:55.698Z,14.02
2022-09-12T01:15:26.633Z,13.94
2022-09-12T01:18:11.084Z,13.73
2022-09-12T01:21:08.804Z,13.81
2022-09-12T01:24:51.580Z,13.95
2022-09-12T01:28:07.951Z,14.02
2022-09-12T01:30:51.464Z,13.83
2022-09-12T01:34:01.211Z,13.79
2022-09-12T01:36:52.871Z,13.78
2022-09-12T01:39:32.210Z,13.91
2022-09-12T01:42:15.584Z,13.63
2022-09-12T01:44:55.682Z,13.75
2022-09-12T01:47:34.053Z,13.65
2022-09-12T01:50:07.898Z,13.61
2022-09-12T01:52:44.919Z,13.63
2022-09-12T01:55:20.027Z,13.69
2022-09-12T01:57:55.141Z,13.71
2022-09-12T02:00:23.579Z,13.70
2022-09-12T02:02:58.777Z,13.51
2022-09-12T02:05:33.530Z,13.61
2022-09-12T02:08:09.116Z,13.58
2022-09-12T02:10:45.176Z,13.55
2022-09-12T02:13:18.446Z,13.55
2022-09-12T02:15:50.769Z,13.35
2022-09-12T02:18:21.911Z,13.43
2022-09-12T02:20:51.425Z,13.55
2022-09-12T02:23:24.339Z,13.36
2022-09-12T02:25:58.677Z,13.34
2022-09-12T02:28:31.740Z,13.23
2022-09-12T02:31:09.157Z,13.05
2022-09-12T02:33:48.803Z,13.15
2022-09-12T02:36:29.603Z,13.32
2022-09-12T02:38:58.026Z,13.31
2022-09-12T02:41:26.309Z,13.31
2022-09-12T02:43:55.654Z,13.46
2022-09-12T02:46:28.257Z,13.29
2022-09-12T02:48:58.712Z,13.31
2022-09-12T02:51:28.290Z,13.24
2022-09-12T02:53:57.125Z,13.20
2022-09-12T02:56:31.487Z,13.25
2022-09-12T02:59:03.761Z,13.18
2022-09-12T03:01:53.258Z,13.17
2022-09-12T03:04:48.377Z,13.25
2022-09-12T03:07:37.558Z,13.15
2022-09-12T03:10:15.714Z,13.16
2022-09-12T03:12:55.225Z,12.98
2022-09-12T03:15:39.400Z,13.05
2022-09-12T03:18:21.991Z,13.16
2022-09-12T03:21:03.093Z,13.26
2022-09-12T03:23:38.475Z,13.17
2022-09-12T03:26:14.195Z,13.09
2022-09-12T03:28:45.398Z,13.03
2022-09-12T03:31:15.879Z,13.14
2022-09-12T03:33:44.689Z,13.22
2022-09-12T03:36:23.450Z,13.29
2022-09-12T03:38:51.755Z,13.20
2022-09-12T03:41:20.374Z,13.13
2022-09-12T03:43:49.097Z,13.25
2022-09-12T03:46:17.313Z,13.26
2022-09-12T03:48:45.566Z,13.20
2022-09-12T03:51:16.453Z,13.04
2022-09-12T03:53:44.611Z,13.06
2022-09-12T03:56:14.084Z,13.10
2022-09-12T03:58:42.792Z,13.14
2022-09-12T04:01:12.751Z,13.03
2022-09-12T04:03:41.773Z,13.11
2022-09-12T04:06:12.586Z,13.10
2022-09-12T04:08:43.480Z,12.99
2022-09-12T04:11:15.546Z,13.02
2022-09-12T04:13:46.786Z,13.05
2022-09-12T04:16:17.241Z,13.09
2022-09-12T04:18:48.278Z,13.08
2022-09-12T04:21:19.262Z,13.12
2022-09-12T04:23:49.450Z,13.03
2022-09-12T04:26:21.764Z,13.09
2022-09-12T04:28:54.685Z,13.16
2022-09-12T04:31:23.610Z,13.15
2022-09-12T04:33:56.208Z,13.23
2022-09-12T04:36:24.909Z,13.17
2022-09-12T04:38:57.405Z,13.25
2022-09-12T04:41:28.796Z,13.33
2022-09-12T04:43:59.380Z,13.37
2022-09-12T04:46:28.626Z,13.30
2022-09-12T04:48:57.422Z,13.39
2022-09-12T04:51:28.250Z,13.35
2022-09-12T04:54:00.587Z,13.35
2022-09-12T04:56:30.414Z,13.43
2022-09-12T04:59:00.436Z,13.37
2022-09-12T05:01:31.224Z,13.36
2022-09-12T05:04:00.805Z,13.40
2022-09-12T05:06:31.666Z,13.40
2022-09-12T05:09:02.122Z,13.40
2022-09-12T05:11:59.759Z,13.47
2022-09-12T05:14:21.105Z,13.41
2022-09-12T05:16:49.953Z,13.40
2022-09-12T05:19:18.757Z,13.23
2022-09-12T05:21:47.004Z,13.27
2022-09-12T05:24:16.789Z,13.28
2022-09-12T05:26:45.137Z,13.22
2022-09-12T05:29:13.515Z,13.19
2022-09-12T05:31:41.931Z,13.10
2022-09-12T05:34:10.499Z,13.10
2022-09-12T05:36:39.550Z,13.28
2022-09-12T05:39:08.438Z,13.30
2022-09-12T05:41:38.248Z,13.28
2022-09-12T05:44:11.983Z,13.46
2022-09-12T05:46:42.531Z,13.58
2022-09-12T05:49:13.713Z,13.69
2022-09-12T05:51:46.196Z,13.66
2022-09-12T05:54:19.322Z,13.79
2022-09-12T05:56:49.982Z,13.86
2022-09-12T05:59:20.550Z,14.05
2022-09-12T06:01:49.814Z,14.23
2022-09-12T06:04:18.518Z,14.21
2022-09-12T06:06:47.323Z,14.24
2022-09-12T06:09:17.365Z,14.43
2022-09-12T06:11:47.273Z,14.55
2022-09-12T06:14:19.393Z,14.59
2022-09-12T06:16:49.952Z,14.77
2022-09-12T06:19:20.586Z,14.86
2022-09-12T06:21:49.744Z,14.92
2022-09-12T06:24:19.275Z,14.99
2022-09-12T06:26:48.418Z,14.94
2022-09-12T06:29:19.220Z,15.02
2022-09-12T06:31:47.606Z,15.05
2022-09-12T06:34:17.407Z,14.98
2022-09-12T06:36:47.928Z,15.08
2022-09-12T06:39:18.933Z,15.22
2022-09-12T06:41:48.343Z,15.09
2022-09-12T06:44:21.157Z,15.00
2022-09-12T06:46:49.879Z,15.17
2022-09-12T06:49:18.655Z,15.34
2022-09-12T06:51:46.855Z,15.36
2022-09-12T06:54:16.725Z,15.46
2022-09-12T06:56:45.975Z,15.45
2022-09-12T06:59:14.512Z,15.53
2022-09-12T07:01:44.229Z,15.71
2022-09-12T07:04:14.808Z,15.81
2022-09-12T07:06:44.586Z,16.00
2022-09-12T07:09:17.604Z,16.17
2022-09-12T07:11:47.273Z,16.41
2022-09-12T07:14:16.794Z,16.47
2022-09-12T07:16:46.452Z,16.38
2022-09-12T07:19:14.636Z,16.54
2022-09-12T07:21:43.040Z,16.23
2022-09-12T07:24:11.959Z,16.53
2022-09-12T07:26:41.968Z,17.05
2022-09-12T07:32:07.992Z,17.32
2022-09-12T07:34:36.924Z,17.65
2022-09-12T07:37:05.838Z,17.67
2022-09-12T07:39:34.471Z,17.78
2022-09-12T07:42:02.641Z,17.64
2022-09-12T07:44:30.874Z,18.11
2022-09-12T07:46:59.190Z,18.37
2022-09-12T07:49:30.448Z,18.48
2022-09-12T07:51:58.801Z,18.41
2022-09-12T07:54:27.647Z,18.46
2022-09-12T07:56:56.255Z,18.45
2022-09-12T07:59:48.496Z,18.33
2022-09-12T08:02:17.091Z,18.83
2022-09-12T08:04:49.054Z,18.94
2022-09-12T08:07:19.284Z,18.81
2022-09-12T08:09:47.849Z,18.73
2022-09-12T08:12:17.677Z,18.82
2022-09-12T08:14:45.900Z,18.76
2022-09-12T08:17:14.271Z,18.72
2022-09-12T08:19:42.763Z,18.84
2022-09-12T08:22:13.088Z,18.97
2022-09-12T08:24:41.744Z,19.38
2022-09-12T08:27:10.737Z,19.35
2022-09-12T08:29:39.145Z,19.66
2022-09-12T08:32:07.511Z,19.40
2022-09-12T08:34:36.119Z,19.60
2022-09-12T08:37:04.340Z,19.86
2022-09-12T08:39:34.143Z,19.93
2022-09-12T08:42:04.826Z,19.86
2022-09-12T08:45:02.710Z,20.18
2022-09-12T08:47:35.551Z,20.62
2022-09-12T08:50:18.759Z,20.59
2022-09-12T08:52:58.383Z,20.90
2022-09-12T08:55:35.571Z,20.83
2022-09-12T08:58:14.138Z,20.77
2022-09-12T09:00:55.009Z,20.97
2022-09-12T09:03:51.021Z,21.13
2022-09-12T09:06:40.900Z,21.16
2022-09-12T09:09:16.266Z,21.53
2022-09-12T09:12:01.603Z,21.50
2022-09-12T09:14:55.383Z,21.41
2022-09-12T09:17:29.072Z,21.69
2022-09-12T09:20:06.669Z,21.84
2022-09-12T09:22:44.474Z,21.92
2022-09-12T09:25:22.988Z,21.58
2022-09-12T09:27:59.536Z,21.56
2022-09-12T09:30:28.592Z,21.85
2022-09-12T09:33:00.918Z,21.39
2022-09-12T09:35:36.837Z,21.67
2022-09-12T09:38:24.502Z,21.34
2022-09-12T09:41:13.620Z,21.71
2022-09-12T09:43:43.274Z,21.63
2022-09-12T09:46:12.275Z,22.26
2022-09-12T09:48:46.133Z,22.52
2022-09-12T09:51:18.240Z,22.62
2022-09-12T09:53:51.305Z,22.27
2022-09-12T09:56:31.534Z,22.82
2022-09-12T09:59:11.773Z,22.86
2022-09-12T10:01:47.860Z,22.88
2022-09-12T10:04:22.927Z,22.83
2022-09-12T10:06:59.894Z,22.93
2022-09-12T10:09:32.969Z,22.61
2022-09-12T10:12:20.325Z,22.71
2022-09-12T10:15:00.540Z,22.67
2022-09-12T10:17:34.623Z,22.50
2022-09-12T10:20:20.915Z,22.97
2022-09-12T10:22:50.249Z,23.51
2022-09-12T10:25:21.419Z,22.76
2022-09-12T10:27:57.428Z,22.64
2022-09-12T10:30:29.201Z,23.26
2022-09-12T10:33:08.352Z,23.72
2022-09-12T10:35:48.471Z,24.16
2022-09-12T10:38:24.788Z,23.73
2022-09-12T10:41:02.413Z,24.14
2022-09-12T10:43:37.225Z,24.67
2022-09-12T10:46:32.273Z,24.12
2022-09-12T10:49:37.947Z,24.28
2022-09-12T10:52:23.074Z,24.53
2022-09-12T10:54:51.728Z,24.45
2022-09-12T10:57:53.988Z,23.66
2022-09-12T11:00:27.827Z,24.06
2022-09-12T11:03:16.374Z,23.75
2022-09-12T11:05:56.183Z,23.48
2022-09-12T11:08:53.341Z,23.70
2022-09-12T11:11:44.028Z,23.23
2022-09-12T11:14:37.470Z,22.87
2022-09-12T11:17:23.795Z,23.57
2022-09-12T11:20:34.478Z,23.71
2022-09-12T11:23:41.988Z,23.61
2022-09-12T11:26:31.783Z,23.60
2022-09-12T11:29:14.790Z,24.07
2022-09-12T11:32:23.285Z,24.09
2022-09-12T11:35:04.422Z,24.75
2022-09-12T11:37:57.636Z,24.72
2022-09-12T11:40:34.320Z,24.77
2022-09-12T11:43:13.204Z,24.55
2022-09-12T11:45:44.490Z,25.05
2022-09-12T11:48:19.350Z,25.20
2022-09-12T11:50:49.651Z,25.05
2022-09-12T11:53:24.100Z,24.96
2022-09-12T11:55:59.480Z,25.04
2022-09-12T11:58:30.256Z,25.14
2022-09-12T12:01:11.418Z,24.72
2022-09-12T12:03:44.562Z,25.30
2022-09-12T12:06:20.207Z,25.46
2022-09-12T12:08:50.631Z,25.77
2022-09-12T12:11:31.761Z,26.33
2022-09-12T12:14:04.708Z,25.97
2022-09-12T12:16:35.842Z,25.65
2022-09-12T12:19:10.987Z,25.73
2022-09-12T12:21:42.681Z,25.51
2022-09-12T12:24:22.580Z,26.23
2022-09-12T12:27:00.814Z,26.01
2022-09-12T12:29:45.989Z,26.47
2022-09-12T12:32:27.632Z,26.63
2022-09-12T12:35:39.871Z,26.05
2022-09-12T12:38:29.560Z,26.29
2022-09-12T12:41:44.622Z,26.36
2022-09-12T12:44:52.494Z,26.91
2022-09-12T12:47:24.929Z,26.35
2022-09-12T12:49:59.175Z,26.23
2022-09-12T12:52:32.199Z,26.15
2022-09-12T12:55:03.797Z,26.68
2022-09-12T12:57:49.537Z,26.14
2022-09-12T13:00:32.751Z,25.52
2022-09-12T13:03:07.593Z,25.60
2022-09-12T13:05:43.668Z,25.34
2022-09-12T13:08:29.895Z,25.62
2022-09-12T13:11:06.824Z,25.96
2022-09-12T13:13:41.548Z,25.81
2022-09-12T13:16:12.439Z,25.95
2022-09-12T13:18:46.172Z,25.89
2022-09-12T13:21:16.611Z,26.03
2022-09-12T13:23:46.144Z,26.05
2022-09-12T13:26:25.131Z,25.80
2022-09-12T13:29:11.616Z,26.18
2022-09-12T13:31:46.630Z,26.12
2022-09-12T13:34:21.828Z,26.53
2022-09-12T13:37:12.531Z,26.53
2022-09-12T13:39:49.564Z,26.55
2022-09-12T13:42:41.432Z,26.14
2022-09-12T13:45:21.171Z,26.17
2022-09-12T13:47:58.393Z,26.18
2022-09-12T13:50:31.750Z,25.60
2022-09-12T13:53:03.683Z,26.53
2022-09-12T13:55:34.717Z,25.87
2022-09-12T13:58:07.029Z,25.72
2022-09-12T14:00:38.071Z,26.09
2022-09-12T14:03:45.570Z,26.29
2022-09-12T14:06:18.858Z,26.08
2022-09-12T14:08:48.880Z,26.42
2022-09-12T14:11:28.308Z,26.31
2022-09-12T14:13:59.255Z,26.55
2022-09-12T14:16:28.888Z,26.59
2022-09-12T14:18:57.583Z,27.32
2022-09-12T14:21:35.773Z,27.01
2022-09-12T14:24:08.450Z,26.56
2022-09-12T14:26:40.435Z,26.71
2022-09-12T14:29:16.820Z,26.80
2022-09-12T14:31:45.560Z,26.92
2022-09-12T14:34:16.347Z,27.36
2022-09-12T14:36:48.795Z,26.95
2022-09-12T14:39:24.258Z,26.71
2022-09-12T14:42:00.954Z,26.79
2022-09-12T14:44:32.094Z,26.54
2022-09-12T14:47:14.106Z,27.12
2022-09-12T14:49:43.143Z,27.50
2022-09-12T14:52:27.643Z,27.90
2022-09-12T14:55:01.584Z,26.99
2022-09-12T14:57:39.302Z,26.89
2022-09-12T15:00:23.156Z,26.90
2022-09-12T15:02:53.298Z,27.13
2022-09-12T15:05:29.433Z,26.79
2022-09-12T15:08:03.831Z,26.46
2022-09-12T15:10:36.752Z,26.77
2022-09-12T15:13:22.572Z,26.42
2022-09-12T15:15:55.700Z,26.47
2022-09-12T15:18:27.749Z,26.66
2022-09-12T15:20:59.486Z,26.89
2022-09-12T15:23:40.156Z,26.91
2022-09-12T15:26:10.940Z,27.09
2022-09-12T15:28:39.423Z,26.82
2022-09-12T15:31:20.941Z,26.70
2022-09-12T15:33:49.417Z,26.51
2022-09-12T15:36:21.607Z,26.68
2022-09-12T15:38:50.742Z,26.68
2022-09-12T15:41:21.145Z,26.91
2022-09-12T15:43:51.295Z,26.71
2022-09-12T15:46:21.445Z,26.70
2022-09-12T15:48:50.136Z,26.97
2022-09-12T15:51:20.872Z,27.08
2022-09-12T15:53:51.018Z,26.68
2022-09-12T15:56:22.001Z,26.38
2022-09-12T15:59:00.104Z,26.98
2022-09-12T16:01:30.896Z,26.71
2022-09-12T16:03:59.768Z,26.82
2022-09-12T16:06:32.484Z,27.30
2022-09-12T16:09:05.335Z,27.59
2022-09-12T16:11:33.941Z,27.05
2022-09-12T16:14:02.305Z,27.35
2022-09-12T16:16:32.208Z,27.09
2022-09-12T16:19:00.392Z,26.83
2022-09-12T16:21:29.349Z,26.91
2022-09-12T16:23:57.590Z,26.85
2022-09-12T16:26:25.873Z,26.63
2022-09-12T16:28:56.908Z,26.34
2022-09-12T16:31:26.779Z,26.08
2022-09-12T16:33:57.173Z,26.22
2022-09-12T16:36:25.537Z,26.16
2022-09-12T16:38:55.170Z,25.81
2022-09-12T16:41:26.529Z,26.01
2022-09-12T16:43:55.658Z,26.31
2022-09-12T16:46:27.884Z,26.58
2022-09-12T16:48:59.625Z,26.60
2022-09-12T16:51:31.827Z,25.66
2022-09-12T16:54:00.595Z,26.30
2022-09-12T16:56:28.992Z,26.30
2022-09-12T16:58:57.732Z,26.60
2022-09-12T17:01:27.778Z,26.59
2022-09-12T17:04:00.162Z,26.33
2022-09-12T17:06:29.700Z,26.19
2022-09-12T17:09:02.800Z,26.39
2022-09-12T17:11:33.925Z,26.40
2022-09-12T17:14:06.956Z,26.32
2022-09-12T17:16:36.563Z,26.13
2022-09-12T17:19:07.910Z,25.69
2022-09-12T17:21:37.793Z,26.00
2022-09-12T17:24:06.482Z,26.05
2022-09-12T17:26:34.701Z,25.95
2022-09-12T17:29:03.174Z,25.87
2022-09-12T17:31:31.882Z,25.95
2022-09-12T17:34:01.742Z,25.87
2022-09-12T17:36:33.980Z,25.62
2022-09-12T17:39:04.765Z,25.47
2022-09-12T17:41:33.661Z,25.36
2022-09-12T17:44:03.411Z,25.44
2022-09-12T17:46:35.357Z,25.31
2022-09-12T17:49:05.879Z,25.02
2022-09-12T17:51:35.883Z,24.95
2022-09-12T17:54:08.348Z,24.89
2022-09-12T17:56:38.024Z,24.78
2022-09-12T17:59:08.629Z,24.45
2022-09-12T18:01:53.762Z,24.26
2022-09-12T18:04:22.193Z,24.00
2022-09-12T18:06:52.964Z,23.82
2022-09-12T18:09:25.281Z,24.02
2022-09-12T18:11:54.750Z,23.99
2022-09-12T18:14:24.775Z,23.51
2022-09-12T18:16:52.962Z,23.30
2022-09-12T18:19:21.216Z,23.11
2022-09-12T18:21:50.811Z,22.94
2022-09-12T18:24:19.691Z,23.01
2022-09-12T18:26:48.128Z,23.05
2022-09-12T18:29:17.287Z,23.12
2022-09-12T18:31:46.684Z,23.00
2022-09-12T18:34:16.201Z,22.74
2022-09-12T18:36:47.996Z,22.76
2022-09-12T18:39:18.993Z,22.59
2022-09-12T18:41:47.716Z,22.65
2022-09-12T18:44:15.912Z,22.44
2022-09-12T18:46:44.223Z,22.47
2022-09-12T18:49:12.694Z,22.27
2022-09-12T18:51:41.826Z,22.40
2022-09-12T18:54:17.907Z,22.44
2022-09-12T18:56:46.173Z,22.48
2022-09-12T18:59:14.893Z,22.23
2022-09-12T19:01:44.150Z,22.00
2022-09-12T19:04:14.268Z,21.90
2022-09-12T19:06:44.804Z,21.90
2022-09-12T19:09:15.288Z,22.02
2022-09-12T19:11:49.628Z,21.80
2022-09-12T19:14:19.816Z,21.57
2022-09-12T19:16:48.032Z,21.65
2022-09-12T19:19:16.226Z,21.53
2022-09-12T19:21:44.708Z,21.58
2022-09-12T19:24:14.424Z,21.53
2022-09-12T19:26:44.667Z,21.33
2022-09-12T19:29:14.672Z,21.05
2022-09-12T19:31:43.412Z,20.87
2022-09-12T19:34:13.470Z,20.73
2022-09-12T19:36:47.123Z,20.64
2022-09-12T19:39:17.301Z,20.48
2022-09-12T19:41:47.413Z,20.47
2022-09-12T19:44:15.755Z,20.62
2022-09-12T19:46:44.446Z,20.64
2022-09-12T19:49:14.631Z,20.73
2022-09-12T19:51:43.999Z,20.81
2022-09-12T19:54:12.675Z,20.69
2022-09-12T19:56:41.023Z,20.66
2022-09-12T19:59:10.742Z,20.58
2022-09-12T20:01:39.431Z,20.74
2022-09-12T20:04:07.783Z,20.77
2022-09-12T20:06:36.702Z,20.69
2022-09-12T20:09:05.307Z,20.52
2022-09-12T20:11:35.371Z,20.58
2022-09-12T20:14:03.768Z,20.69
2022-09-12T20:16:33.757Z,20.67
2022-09-12T20:19:07.091Z,20.53
2022-09-12T20:21:36.723Z,20.56
2022-09-12T20:24:07.614Z,20.46
2022-09-12T20:26:35.852Z,20.35
2022-09-12T20:29:05.363Z,20.33
2022-09-12T20:31:35.842Z,20.31
2022-09-12T20:34:04.868Z,20.21
2022-09-12T20:36:33.448Z,20.19
2022-09-12T20:39:03.244Z,20.15
2022-09-12T20:41:37.648Z,20.27
2022-09-12T20:44:06.325Z,20.35
2022-09-12T20:46:37.876Z,20.35
2022-09-12T20:49:06.523Z,20.12
2022-09-12T20:51:34.879Z,20.17
2022-09-12T20:54:06.263Z,20.13
2022-09-12T20:56:37.925Z,20.08
2022-09-12T20:59:06.983Z,20.19
2022-09-12T21:01:36.989Z,20.07
2022-09-12T21:04:05.585Z,19.94
2022-09-12T21:06:33.989Z,19.97
2022-09-12T21:09:04.697Z,19.97
2022-09-12T21:11:33.431Z,20.04
2022-09-12T21:14:01.810Z,19.91
2022-09-12T21:16:30.430Z,19.87
2022-09-12T21:19:00.428Z,19.87
2022-09-12T21:21:28.957Z,19.92
2022-09-12T21:23:59.896Z,20.01
2022-09-12T21:26:32.476Z,19.92
2022-09-12T21:29:01.440Z,19.90
2022-09-12T21:31:32.398Z,19.86
2022-09-12T21:34:02.080Z,19.84
2022-09-12T21:36:30.432Z,19.86
2022-09-12T21:39:00.040Z,19.72
2022-09-12T21:41:28.774Z,19.60
2022-09-12T21:43:57.086Z,19.55
2022-09-12T21:46:25.401Z,19.61
2022-09-12T21:48:53.620Z,19.54
2022-09-12T21:51:23.229Z,19.56
2022-09-12T21:53:51.461Z,19.57
2022-09-12T21:56:20.854Z,19.77
2022-09-12T21:58:49.150Z,19.68
2022-09-12T22:01:17.453Z,19.64
2022-09-12T22:03:45.708Z,19.50
2022-09-12T22:06:14.658Z,19.28
2022-09-12T22:08:45.856Z,19.38
2022-09-12T22:11:14.126Z,19.37
2022-09-12T22:13:43.930Z,19.27
2022-09-12T22:16:12.554Z,19.38
2022-09-12T22:18:40.935Z,19.17
2022-09-12T22:21:13.318Z,19.23
2022-09-12T22:23:59.732Z,19.12
2022-09-12T22:26:30.033Z,19.05
2022-09-12T22:28:58.348Z,19.12
2022-09-12T22:31:28.055Z,19.04
2022-09-12T22:33:58.302Z,19.08
2022-09-12T22:36:30.973Z,18.96
2022-09-12T22:39:01.018Z,18.85
2022-09-12T22:41:30.808Z,18.70
2022-09-12T22:43:59.876Z,18.58
2022-09-12T22:46:29.978Z,18.68
2022-09-12T22:48:58.249Z,18.68
2022-09-12T22:51:26.829Z,18.50
2022-09-12T22:53:56.406Z,18.41
2022-09-12T22:56:24.873Z,18.42
2022-09-12T22:58:55.145Z,18.30
2022-09-12T23:01:24.022Z,18.35
2022-09-12T23:03:52.494Z,18.16
2022-09-12T23:06:21.202Z,18.12
2022-09-12T23:08:49.713Z,18.16
2022-09-12T23:11:22.166Z,18.03
2022-09-12T23:13:52.302Z,18.07
2022-09-12T23:16:25.798Z,17.92
2022-09-12T23:18:54.339Z,17.91
2022-09-12T23:21:23.496Z,18.08
2022-09-12T23:23:52.943Z,18.12
2022-09-12T23:26:23.213Z,18.00
2022-09-12T23:28:54.901Z,17.90
2022-09-12T23:31:32.146Z,17.68
2022-09-12T23:34:03.270Z,17.79
2022-09-12T23:36:31.876Z,17.43
2022-09-12T23:39:01.157Z,17.37
2022-09-12T23:41:30.323Z,17.44
2022-09-12T23:43:58.828Z,17.41
2022-09-12T23:46:28.437Z,17.40
2022-09-12T23:48:56.895Z,17.53
2022-09-12T23:51:25.088Z,17.48
2022-09-12T23:53:53.273Z,17.60
2022-09-12T23:56:22.036Z,17.43
2022-09-12T23:58:50.412Z,17.45
